PORTS® Data Listing: 8516945 Kings Point, NY

CO-OPS RAW PORTS DATA

************************      PRELIMINARY DATA      ************************** 

     THIS RAW DATA HAS NOT BEEN SUBJECT TO THE NATIONAL OCEAN SERVICE'S        
     QUALITY CONTROL OR QUALITY ASSURANCE PROCEDURES AND DOES NOT MEET         
     THE CRITERIA AND STANDARDS OF OFFICIAL NATIONAL OCEAN SERVICE             
     DATA.  IT IS RELEASED FOR LIMITED PUBLIC USE AS PRELIMINARY DATA TO       
     BE USED ONLY WITH APPROPRIATE CAUTION.                                    

************************      PRELIMINARY DATA      ************************** 


       CD   -   Calendar date
       T    -   Time
       TZ   -   Timezone
       PW   -   Predicted water level (feet above MLLW)
       OW   -   Observed water level (feet above MLLW)
       WS   -   Wind speed (knots)
       WD   -   Wind direction (degrees true)
       WG   -   Wind gust (knots)
       AT   -   Air temperature (degrees farenheit)
       WT   -   Water temperature (degrees farenheit)
       AP   -   Air pressure (millibars)
       SA   -   Salinty (PSU - Practical Salinity Units)
       SG   -   Specific gravity
       RH   -   Relative humidity
       AG   -   Air gap (feet)
       VI   -   Visibility (nautical miles)

       ** NOTE **
       A variable that has its data fields filled with "9"s, indicates that
       data was not collected for that sample period.
       **********


STATION NAME: Kings Point (8516945)
****************************************************************************************************
    CD       T    TZ    PW     OW    WS   WD   WG    AT    WT    AP    SA    SG     RH    AG   VI
****************************************************************************************************
2019/11/21 13:36 EST    0.52   1.34    3   41    4  49.5  48.9 1020.7 -9.9 -9.999 -99.9 -99.99 -9.99
2019/11/21 13:42 EST    0.57   1.38    4   38    4  49.6  48.9 1020.6 -9.9 -9.999 -99.9 -99.99 -9.99
2019/11/21 13:48 EST    0.63   1.43    3   34    4  49.8  48.9 1020.6 -9.9 -9.999 -99.9 -99.99 -9.99
2019/11/21 13:54 EST    0.71   1.50    0  329    2  50.2  48.9 1020.5 -9.9 -9.999 -99.9 -99.99 -9.99
2019/11/21 14:00 EST    0.79   1.57    1  357    1  51.6  48.9 1020.5 -9.9 -9.999 -99.9 -99.99 -9.99
2019/11/21 14:06 EST    0.90   1.67    0  176    1  52.5  48.9 1020.5 -9.9 -9.999 -99.9 -99.99 -9.99
2019/11/21 14:12 EST    1.01   1.78    1  249    2  53.8  48.9 1020.5 -9.9 -9.999 -99.9 -99.99 -9.99
2019/11/21 14:18 EST    1.14   1.90    1  267    3  52.0  48.9 1020.4 -9.9 -9.999 -99.9 -99.99 -9.99
2019/11/21 14:24 EST    1.28   2.04    0  267    1  51.3  48.9 1020.4 -9.9 -9.999 -99.9 -99.99 -9.99
2019/11/21 14:30 EST    1.44   2.20    0  268    0  54.7  48.9 1020.4 -9.9 -9.999 -99.9 -99.99 -9.99
2019/11/21 14:36 EST    1.61   2.38    0   79    0  55.4  48.9 1020.3 -9.9 -9.999 -99.9 -99.99 -9.99
2019/11/21 14:42 EST    1.79   2.58    0  154    0  54.5  49.1 1020.2 -9.9 -9.999 -99.9 -99.99 -9.99
2019/11/21 14:48 EST    1.99   2.80    0  185    1  53.6  49.1 1020.1 -9.9 -9.999 -99.9 -99.99 -9.99
2019/11/21 14:54 EST    2.20   3.04    1  216    2  53.6  49.1 1020.0 -9.9 -9.999 -99.9 -99.99 -9.99
2019/11/21 15:00 EST    2.42   3.29    1  220    2  52.0  49.3 1020.1 -9.9 -9.999 -99.9 -99.99 -9.99
2019/11/21 15:06 EST    2.65   3.56    1  218    1  51.4  49.3 1020.1 -9.9 -9.999 -99.9 -99.99 -9.99
2019/11/21 15:12 EST    2.88   3.84    2  200    2  52.0  49.3 1020.3 -9.9 -9.999 -99.9 -99.99 -9.99
2019/11/21 15:18 EST    3.12   4.12    3  227    3  51.3  49.3 1020.2 -9.9 -9.999 -99.9 -99.99 -9.99
2019/11/21 15:24 EST    3.37   4.40    2  226    4  50.7  49.3 1020.2 -9.9 -9.999 -99.9 -99.99 -9.99
2019/11/21 15:30 EST    3.62   4.69    1  212    2  50.4  49.3 1020.2 -9.9 -9.999 -99.9 -99.99 -9.99
2019/11/21 15:36 EST    3.87   4.98    1  200    2  50.7  49.3 1020.1 -9.9 -9.999 -99.9 -99.99 -9.99
2019/11/21 15:42 EST    4.12   5.28    1  214    2  51.1  49.3 1020.0 -9.9 -9.999 -99.9 -99.99 -9.99
2019/11/21 15:48 EST    4.37   5.57    2  217    2  51.3  49.3 1019.9 -9.9 -9.999 -99.9 -99.99 -9.99
2019/11/21 15:54 EST    4.61   5.86    2  210    3  50.7  49.3 1019.9 -9.9 -9.999 -99.9 -99.99 -9.99
2019/11/21 16:00 EST    4.85   6.15    2  194    3  50.7  49.3 1019.7 -9.9 -9.999 -99.9 -99.99 -9.99
2019/11/21 16:06 EST    5.08   6.42    2  204    3  50.7  49.3 1019.7 -9.9 -9.999 -99.9 -99.99 -9.99
2019/11/21 16:12 EST    5.30   6.68    2  199    3  50.7  49.3 1019.7 -9.9 -9.999 -99.9 -99.99 -9.99
2019/11/21 16:18 EST    5.51   6.92    3  195    3  50.2  49.3 1019.8 -9.9 -9.999 -99.9 -99.99 -9.99
2019/11/21 16:24 EST    5.71   7.14    3  201    4  50.2  49.3 1019.8 -9.9 -9.999 -99.9 -99.99 -9.99
2019/11/21 16:30 EST    5.90   7.35    4  193    4  50.2  49.3 1019.7 -9.9 -9.999 -99.9 -99.99 -9.99
2019/11/21 16:36 EST    6.08   7.55    2  218    4  50.0  49.3 1019.7 -9.9 -9.999 -99.9 -99.99 -9.99
2019/11/21 16:42 EST    6.24   7.72    4  234    5  50.0  49.5 1019.7 -9.9 -9.999 -99.9 -99.99 -9.99
2019/11/21 16:48 EST    6.39   7.87    6  233    7  50.0  49.5 1019.7 -9.9 -9.999 -99.9 -99.99 -9.99
2019/11/21 16:54 EST    6.53   7.99    6  223    7  50.7  49.5 1019.6 -9.9 -9.999 -99.9 -99.99 -9.99
2019/11/21 17:00 EST    6.66   8.10    5  214    7  50.4  49.5 1019.6 -9.9 -9.999 -99.9 -99.99 -9.99
2019/11/21 17:06 EST    6.77   8.19    7  229    9  49.8  49.5 1019.5 -9.9 -9.999 -99.9 -99.99 -9.99
2019/11/21 17:12 EST    6.87   8.26    7  237    8  50.4  49.5 1019.6 -9.9 -9.999 -99.9 -99.99 -9.99
2019/11/21 17:18 EST    6.96   8.31    6  209    7  50.5  49.5 1019.6 -9.9 -9.999 -99.9 -99.99 -9.99
2019/11/21 17:24 EST    7.04   8.36    5  203    7  49.6  49.5 1019.5 -9.9 -9.999 -99.9 -99.99 -9.99
2019/11/21 17:30 EST    7.11   8.39    6  206    7  49.1  49.5 1019.6 -9.9 -9.999 -99.9 -99.99 -9.99
2019/11/21 17:36 EST    7.17   8.42    7  210    8  48.9  49.5 1019.6 -9.9 -9.999 -99.9 -99.99 -9.99
2019/11/21 17:42 EST    7.22   8.43    6  203    8  49.1  49.5 1019.6 -9.9 -9.999 -99.9 -99.99 -9.99
2019/11/21 17:48 EST    7.26   8.43    8  201    9  49.1  49.5 1019.4 -9.9 -9.999 -99.9 -99.99 -9.99
2019/11/21 17:54 EST    7.29   8.42    9  209   10  49.6  49.5 1019.4 -9.9 -9.999 -99.9 -99.99 -9.99
2019/11/21 18:00 EST    7.32   8.43    9  209    9  49.5  49.5 1019.5 -9.9 -9.999 -99.9 -99.99 -9.99
2019/11/21 18:06 EST    7.34   8.41    8  224    9  49.6  49.5 1019.4 -9.9 -9.999 -99.9 -99.99 -9.99
2019/11/21 18:12 EST    7.36   8.42    8  230   10  50.0  49.5 1019.4 -9.9 -9.999 -99.9 -99.99 -9.99
2019/11/21 18:18 EST    7.37   8.44    8  234   10  50.4  49.5 1019.4 -9.9 -9.999 -99.9 -99.99 -9.99
2019/11/21 18:24 EST    7.38   8.44    9  233   11  50.7  49.5 1019.3 -9.9 -9.999 -99.9 -99.99 -9.99
2019/11/21 18:30 EST    7.38   8.43    8  233   10  50.7  49.5 1019.2 -9.9 -9.999 -99.9 -99.99 -9.99
2019/11/21 18:36 EST    7.38   8.45    8  236   10  50.7  49.5 1019.1 -9.9 -9.999 -99.9 -99.99 -9.99
2019/11/21 18:42 EST    7.38   8.47    7  225    9  50.7  49.5 1019.0 -9.9 -9.999 -99.9 -99.99 -9.99
2019/11/21 18:48 EST    7.37   8.48    6  219    9  50.2  49.5 1019.1 -9.9 -9.999 -99.9 -99.99 -9.99
2019/11/21 18:54 EST    7.36   8.50    6  223    7  49.8  49.5 1019.1 -9.9 -9.999 -99.9 -99.99 -9.99
2019/11/21 19:00 EST    7.34   8.51    6  221    7  49.5  49.5 1019.2 -9.9 -9.999 -99.9 -99.99 -9.99
2019/11/21 19:06 EST    7.32   8.51    5  237    7  49.3  49.5 1019.2 -9.9 -9.999 -99.9 -99.99 -9.99
2019/11/21 19:12 EST    7.29   8.53    7  235    8  49.8  49.5 1019.3 -9.9 -9.999 -99.9 -99.99 -9.99
2019/11/21 19:18 EST    7.26   8.51    8  224    9  50.2  49.5 1019.2 -9.9 -9.999 -99.9 -99.99 -9.99
2019/11/21 19:24 EST    7.23   8.49    8  224   10  50.0  49.5 1019.0 -9.9 -9.999 -99.9 -99.99 -9.99
2019/11/21 19:30 EST    7.18   8.47    9  218   10  49.8  49.5 1018.9 -9.9 -9.999 -99.9 -99.99 -9.99
2019/11/21 19:36 EST    7.13   8.44    9  210   10  49.6  49.5 1018.8 -9.9 -9.999 -99.9 -99.99 -9.99
2019/11/21 19:42 EST    7.08   8.40    9  221   10  49.3  49.5 1018.7 -9.9 -9.999 -99.9 -99.99 -9.99
2019/11/21 19:48 EST    7.01   8.37    8  229    9  49.6  49.5 1018.8 -9.9 -9.999 -99.9 -99.99 -9.99
2019/11/21 19:54 EST    6.94   8.30    9  234   11  49.8  49.5 1018.9 -9.9 -9.999 -99.9 -99.99 -9.99
2019/11/21 20:00 EST    6.86   8.22    9  228   11  50.0  49.5 1018.7 -9.9 -9.999 -99.9 -99.99 -9.99
2019/11/21 20:06 EST    6.77   8.13   10  223   11  50.0  49.5 1018.5 -9.9 -9.999 -99.9 -99.99 -9.99
2019/11/21 20:12 EST    6.67   8.02   10  223   11  49.8  49.5 1018.5 -9.9 -9.999 -99.9 -99.99 -9.99
2019/11/21 20:18 EST    6.56   7.91   11  228   13  49.6  49.5 1018.5 -9.9 -9.999 -99.9 -99.99 -9.99
2019/11/21 20:24 EST    6.45   7.78   10  227   14  50.0  49.3 1018.5 -9.9 -9.999 -99.9 -99.99 -9.99
2019/11/21 20:30 EST    6.32   7.65   11  231   13  50.0  49.3 1018.4 -9.9 -9.999 -99.9 -99.99 -9.99
2019/11/21 20:36 EST    6.18   7.50   10  218   11  50.0  49.3 1018.4 -9.9 -9.999 -99.9 -99.99 -9.99
2019/11/21 20:42 EST    6.03   7.35   11  230   13  49.6  49.3 1018.3 -9.9 -9.999 -99.9 -99.99 -9.99
2019/11/21 20:48 EST    5.88   7.17   10  232   13  49.8  49.3 1018.4 -9.9 -9.999 -99.9 -99.99 -9.99
2019/11/21 20:54 EST    5.71   7.00   10  231   13  49.8  49.3 1018.3 -9.9 -9.999 -99.9 -99.99 -9.99
2019/11/21 21:00 EST    5.53   6.83    9  226   12  49.6  49.3 1018.1 -9.9 -9.999 -99.9 -99.99 -9.99
2019/11/21 21:06 EST    5.35   6.63    9  223   12  49.6  49.3 1018.1 -9.9 -9.999 -99.9 -99.99 -9.99
2019/11/21 21:12 EST    5.16   6.41    8  226   12  49.6  49.3 1017.9 -9.9 -9.999 -99.9 -99.99 -9.99
2019/11/21 21:18 EST    4.97   6.20    9  228   12  49.6  49.3 1017.9 -9.9 -9.999 -99.9 -99.99 -9.99
2019/11/21 21:24 EST    4.76   5.98    9  234   12  49.5  49.3 1017.8 -9.9 -9.999 -99.9 -99.99 -9.99
2019/11/21 21:30 EST    4.56   5.76   10  230   11  49.6  49.3 1017.7 -9.9 -9.999 -99.9 -99.99 -9.99
2019/11/21 21:36 EST    4.35   5.54    9  233   12  49.6  49.3 1017.4 -9.9 -9.999 -99.9 -99.99 -9.99
2019/11/21 21:42 EST    4.13   5.30   10  218   12  49.5  49.3 1017.1 -9.9 -9.999 -99.9 -99.99 -9.99
2019/11/21 21:48 EST    3.91   5.07    9  229   11  49.5  49.3 1016.8 -9.9 -9.999 -99.9 -99.99 -9.99
2019/11/21 21:54 EST    3.70   4.84    8  240   12  49.1  49.3 1016.9 -9.9 -9.999 -99.9 -99.99 -9.99
2019/11/21 22:00 EST    3.48   4.63    9  236   10  49.3  49.3 1017.0 -9.9 -9.999 -99.9 -99.99 -9.99
2019/11/21 22:06 EST    3.26   4.38    9  241   12  49.3  49.3 1016.8 -9.9 -9.999 -99.9 -99.99 -9.99
2019/11/21 22:12 EST    3.05   4.15    9  246   12  49.3  49.3 1016.9 -9.9 -9.999 -99.9 -99.99 -9.99
2019/11/21 22:18 EST    2.84   3.92    9  243   11  49.3  49.3 1017.0 -9.9 -9.999 -99.9 -99.99 -9.99
2019/11/21 22:24 EST    2.64   3.69    9  238   12  49.5  49.3 1017.1 -9.9 -9.999 -99.9 -99.99 -9.99
2019/11/21 22:30 EST    2.44   3.47   11  235   13  49.5  49.3 1016.7 -9.9 -9.999 -99.9 -99.99 -9.99
2019/11/21 22:36 EST    2.24   3.25    9  236   12  49.5  49.3 1016.6 -9.9 -9.999 -99.9 -99.99 -9.99
2019/11/21 22:42 EST    2.06   3.05   10  231   13  49.5  49.1 1016.5 -9.9 -9.999 -99.9 -99.99 -9.99
2019/11/21 22:48 EST    1.88   2.86   12  242   15  49.5  49.1 1016.2 -9.9 -9.999 -99.9 -99.99 -9.99
2019/11/21 22:54 EST    1.71   2.65   12  243   15  49.5  49.1 1016.2 -9.9 -9.999 -99.9 -99.99 -9.99
2019/11/21 23:00 EST    1.55   2.46   13  245   16  49.5  49.1 1016.1 -9.9 -9.999 -99.9 -99.99 -9.99
2019/11/21 23:06 EST    1.39   2.31   11  245   15  49.6  49.1 1016.1 -9.9 -9.999 -99.9 -99.99 -9.99
2019/11/21 23:12 EST    1.25   2.16   10  246   14  49.5  48.9 1016.0 -9.9 -9.999 -99.9 -99.99 -9.99
2019/11/21 23:18 EST    1.12   2.02   10  241   13  49.5  48.9 1016.0 -9.9 -9.999 -99.9 -99.99 -9.99
2019/11/21 23:24 EST    1.00   1.89    9  229   11  49.5  48.9 1015.9 -9.9 -9.999 -99.9 -99.99 -9.99
2019/11/21 23:30 EST    0.88   1.77    8  225   10  49.3  48.9 1015.8 -9.9 -9.999 -99.9 -99.99 -9.99
2019/11/21 23:36 EST    0.78   1.67    9  231   11  48.9  48.9 1015.9 -9.9 -9.999 -99.9 -99.99 -9.99
2019/11/21 23:42 EST    0.68   1.58   11  231   12  48.9  48.9 1015.8 -9.9 -9.999 -99.9 -99.99 -9.99
2019/11/21 23:48 EST    0.60   1.52   11  235   13  48.7  48.9 1015.8 -9.9 -9.999 -99.9 -99.99 -9.99
2019/11/21 23:54 EST    0.52   1.45   12  236   15  48.6  48.7 1015.8 -9.9 -9.999 -99.9 -99.99 -9.99
2019/11/22 00:00 EST    0.45   1.40   11  247   14  48.6  48.7 1015.8 -9.9 -9.999 -99.9 -99.99 -9.99
2019/11/22 00:06 EST    0.38   1.39   11  247   15  48.6  48.7 1015.9 -9.9 -9.999 -99.9 -99.99 -9.99
2019/11/22 00:12 EST    0.33   1.37   11  239   13  48.6  48.7 1016.0 -9.9 -9.999 -99.9 -99.99 -9.99
2019/11/22 00:18 EST    0.27   1.37    9  235   12  48.4  48.7 1016.0 -9.9 -9.999 -99.9 -99.99 -9.99
2019/11/22 00:24 EST    0.22   1.35   10  233   12  48.4  48.6 1015.9 -9.9 -9.999 -99.9 -99.99 -9.99
2019/11/22 00:30 EST    0.18   1.35   10  231   12  48.4  48.6 1015.8 -9.9 -9.999 -99.9 -99.99 -9.99
2019/11/22 00:36 EST    0.14   1.34    8  237   12  48.4  48.6 1015.7 -9.9 -9.999 -99.9 -99.99 -9.99
2019/11/22 00:42 EST    0.11   1.32    9  229   11  48.4  48.4 1015.6 -9.9 -9.999 -99.9 -99.99 -9.99
2019/11/22 00:48 EST    0.07   1.30   10  220   12  48.4  48.6 1015.4 -9.9 -9.999 -99.9 -99.99 -9.99
2019/11/22 00:54 EST    0.05   1.28   10  221   12  48.2  48.6 1015.0 -9.9 -9.999 -99.9 -99.99 -9.99
2019/11/22 01:00 EST    0.02   1.26    9  235   13  48.4  48.6 1014.9 -9.9 -9.999 -99.9 -99.99 -9.99
2019/11/22 01:06 EST   -0.00   1.25    9  240   13  48.6  48.6 1015.1 -9.9 -9.999 -99.9 -99.99 -9.99
2019/11/22 01:12 EST   -0.02   1.22    8  234   11  48.7  48.6 1015.1 -9.9 -9.999 -99.9 -99.99 -9.99
2019/11/22 01:18 EST   -0.03   1.18    6  227   10  48.7  48.6 1015.1 -9.9 -9.999 -99.9 -99.99 -9.99
2019/11/22 01:24 EST   -0.04   1.16    8  215    9  48.6  48.6 1015.2 -9.9 -9.999 -99.9 -99.99 -9.99
2019/11/22 01:30 EST   -0.05   1.12   10  212   14  48.4  48.6 1014.8 -9.9 -9.999 -99.9 -99.99 -9.99
2019/11/22 01:36 EST   -0.04   1.08   10  228   11  48.2  48.6 1014.7 -9.9 -9.999 -99.9 -99.99 -9.99
2019/11/22 01:42 EST   -0.03   1.07   11  224   13  48.2  48.7 1014.8 -9.9 -9.999 -99.9 -99.99 -9.99
2019/11/22 01:48 EST   -0.02   1.05   11  229   14  48.2  48.6 1014.7 -9.9 -9.999 -99.9 -99.99 -9.99
2019/11/22 01:54 EST    0.01   1.05   12  226   15  48.4  48.6 1014.7 -9.9 -9.999 -99.9 -99.99 -9.99
2019/11/22 02:00 EST    0.05   1.05   12  228   14  48.4  48.6 1014.6 -9.9 -9.999 -99.9 -99.99 -9.99
2019/11/22 02:06 EST    0.10   1.06   12  231   15  48.4  48.6 1014.3 -9.9 -9.999 -99.9 -99.99 -9.99
2019/11/22 02:12 EST    0.16   1.09   11  225   14  48.4  48.6 1014.2 -9.9 -9.999 -99.9 -99.99 -9.99
2019/11/22 02:18 EST    0.23   1.13   11  225   16  48.4  48.6 1014.0 -9.9 -9.999 -99.9 -99.99 -9.99
2019/11/22 02:24 EST    0.32   1.18   12  229   14  48.4  48.6 1013.7 -9.9 -9.999 -99.9 -99.99 -9.99
2019/11/22 02:30 EST    0.42   1.26   11  232   13  48.4  48.6 1013.7 -9.9 -9.999 -99.9 -99.99 -9.99
2019/11/22 02:36 EST    0.54   1.36   13  228   17  48.6  48.6 1013.8 -9.9 -9.999 -99.9 -99.99 -9.99
2019/11/22 02:42 EST    0.67   1.46   12  233   15  48.6  48.6 1013.4 -9.9 -9.999 -99.9 -99.99 -9.99
2019/11/22 02:48 EST    0.82   1.59   13  232   15  48.4  48.7 1013.3 -9.9 -9.999 -99.9 -99.99 -9.99
2019/11/22 02:54 EST    0.98   1.74   14  235   17  48.6  48.9 1013.3 -9.9 -9.999 -99.9 -99.99 -9.99
2019/11/22 03:00 EST    1.16   1.92   12  238   16  48.6  48.9 1013.3 -9.9 -9.999 -99.9 -99.99 -9.99
2019/11/22 03:06 EST    1.35   2.13   11  241   14  48.4  48.9 1013.3 -9.9 -9.999 -99.9 -99.99 -9.99
2019/11/22 03:12 EST    1.56   2.33   11  247   15  48.4  48.9 1013.3 -9.9 -9.999 -99.9 -99.99 -9.99
2019/11/22 03:18 EST    1.78   2.55   10  242   14  48.4  48.9 1013.2 -9.9 -9.999 -99.9 -99.99 -9.99
2019/11/22 03:24 EST    2.01   2.79   10  237   13  48.4  48.9 1013.1 -9.9 -9.999 -99.9 -99.99 -9.99
2019/11/22 03:30 EST    2.25   3.07   10  238   12  48.4  48.9 1013.0 -9.9 -9.999 -99.9 -99.99 -9.99
2019/11/22 03:36 EST    2.50   3.34   11  227   13  48.2  49.1 1012.8 -9.9 -9.999 -99.9 -99.99 -9.99
2019/11/22 03:42 EST    2.76   3.62   11  234   13  48.2  49.1 1012.7 -9.9 -9.999 -99.9 -99.99 -9.99
2019/11/22 03:48 EST    3.03   3.90   12  227   14  48.4  49.1 1012.5 -9.9 -9.999 -99.9 -99.99 -9.99
2019/11/22 03:54 EST    3.30   4.19   12  234   15  48.2  49.1 1012.2 -9.9 -9.999 -99.9 -99.99 -9.99
2019/11/22 04:00 EST    3.57   4.51   10  251   13  48.2  49.1 1012.5 -9.9 -9.999 -99.9 -99.99 -9.99
2019/11/22 04:06 EST    3.84   4.82   10  243   12  48.2  49.1 1012.6 -9.9 -9.999 -99.9 -99.99 -9.99
2019/11/22 04:12 EST    4.11   5.11    9  246   12  48.2  49.1 1012.6 -9.9 -9.999 -99.9 -99.99 -9.99
2019/11/22 04:18 EST    4.38   5.39    9  248   11  48.2  49.1 1012.6 -9.9 -9.999 -99.9 -99.99 -9.99
2019/11/22 04:24 EST    4.64   5.67    9  228   12  48.4  49.1 1012.4 -9.9 -9.999 -99.9 -99.99 -9.99
2019/11/22 04:30 EST    4.90   5.94    9  233   12  48.4  49.1 1012.2 -9.9 -9.999 -99.9 -99.99 -9.99
2019/11/22 04:36 EST    5.15   6.20   10  244   12  48.4  49.1 1012.0 -9.9 -9.999 -99.9 -99.99 -9.99
2019/11/22 04:42 EST    5.39   6.46   10  234   13  48.4  49.1 1012.0 -9.9 -9.999 -99.9 -99.99 -9.99
2019/11/22 04:48 EST    5.62   6.70   10  237   13  48.2  49.1 1011.9 -9.9 -9.999 -99.9 -99.99 -9.99
2019/11/22 04:54 EST    5.84   6.91   12  243   15  48.2  49.1 1011.8 -9.9 -9.999 -99.9 -99.99 -9.99
2019/11/22 05:00 EST    6.05   7.12    9  238   12  48.2  49.1 1011.8 -9.9 -9.999 -99.9 -99.99 -9.99
2019/11/22 05:06 EST    6.25   7.32    8  240   12  48.0  49.1 1011.7 -9.9 -9.999 -99.9 -99.99 -9.99
2019/11/22 05:12 EST    6.43   7.50   10  242   11  48.0  49.1 1011.7 -9.9 -9.999 -99.9 -99.99 -9.99
2019/11/22 05:18 EST    6.60   7.67    9  245   11  48.0  49.3 1011.7 -9.9 -9.999 -99.9 -99.99 -9.99
2019/11/22 05:24 EST    6.76   7.80   10  255   12  48.0  49.3 1011.8 -9.9 -9.999 -99.9 -99.99 -9.99
2019/11/22 05:30 EST    6.90   7.92   10  240   11  48.0  49.3 1011.8 -9.9 -9.999 -99.9 -99.99 -9.99
2019/11/22 05:36 EST    7.03   8.02   11  254   15  48.0  49.3 1011.8 -9.9 -9.999 -99.9 -99.99 -9.99
2019/11/22 05:42 EST    7.16   8.11   10  252   13  48.0  49.3 1011.6 -9.9 -9.999 -99.9 -99.99 -9.99
2019/11/22 05:48 EST    7.26   8.17    9  248   11  48.2  49.3 1011.4 -9.9 -9.999 -99.9 -99.99 -9.99
2019/11/22 05:54 EST    7.36   8.23    9  248   13  48.0  49.3 1011.2 -9.9 -9.999 -99.9 -99.99 -9.99
2019/11/22 06:00 EST    7.45   8.28   10  248   13  48.0  49.3 1011.1 -9.9 -9.999 -99.9 -99.99 -9.99
2019/11/22 06:06 EST    7.53   8.33   10  246   13  48.2  49.3 1011.1 -9.9 -9.999 -99.9 -99.99 -9.99
2019/11/22 06:12 EST    7.60   8.35    8  250   11  48.2  49.3 1011.1 -9.9 -9.999 -99.9 -99.99 -9.99
2019/11/22 06:18 EST    7.66   8.38    9  243   13  48.2  49.3 1011.0 -9.9 -9.999 -99.9 -99.99 -9.99
2019/11/22 06:24 EST    7.72   8.39    8  247   10  48.2  49.3 1010.9 -9.9 -9.999 -99.9 -99.99 -9.99
2019/11/22 06:30 EST    7.77   8.39    9  246   11  48.2  49.3 1011.0 -9.9 -9.999 -99.9 -99.99 -9.99
2019/11/22 06:36 EST    7.81   8.39    9  252   12  48.4  49.3 1010.8 -9.9 -9.999 -99.9 -99.99 -9.99
2019/11/22 06:42 EST    7.84   8.38   10  250   12  48.4  49.3 1010.9 -9.9 -9.999 -99.9 -99.99 -9.99
2019/11/22 06:48 EST    7.87   8.37    9  248   12  48.4  49.3 1011.0 -9.9 -9.999 -99.9 -99.99 -9.99
2019/11/22 06:54 EST    7.90   8.38    8  244   11  48.6  49.3 1010.8 -9.9 -9.999 -99.9 -99.99 -9.99
2019/11/22 07:00 EST    7.92   8.39   10  243   11  48.6  49.3 1010.5 -9.9 -9.999 -99.9 -99.99 -9.99
2019/11/22 07:06 EST    7.93   8.38   10  248   15  48.6  49.3 1010.5 -9.9 -9.999 -99.9 -99.99 -9.99
2019/11/22 07:12 EST    7.94   8.39   10  238   13  48.7  49.3 1010.6 -9.9 -9.999 -99.9 -99.99 -9.99
2019/11/22 07:18 EST    7.95   8.39    7  246   11  48.7  49.3 1010.4 -9.9 -9.999 -99.9 -99.99 -9.99
2019/11/22 07:24 EST    7.95   8.39   10  252   13  48.7  49.3 1010.3 -9.9 -9.999 -99.9 -99.99 -9.99
2019/11/22 07:30 EST    7.94   8.39    8  244   11  48.7  49.3 1010.4 -9.9 -9.999 -99.9 -99.99 -9.99
2019/11/22 07:36 EST    7.93 -99.99 -999 -999 -999 -99.9 -99.9 -999.9 -9.9 -9.999 -99.9 -99.99 -9.99
2019/11/22 07:42 EST    7.91 -99.99 -999 -999 -999 -99.9 -99.9 -999.9 -9.9 -9.999 -99.9 -99.99 -9.99
2019/11/22 07:48 EST    7.89 -99.99 -999 -999 -999 -99.9 -99.9 -999.9 -9.9 -9.999 -99.9 -99.99 -9.99
2019/11/22 07:54 EST    7.86 -99.99 -999 -999 -999 -99.9 -99.9 -999.9 -9.9 -9.999 -99.9 -99.99 -9.99
2019/11/22 08:00 EST    7.82 -99.99 -999 -999 -999 -99.9 -99.9 -999.9 -9.9 -9.999 -99.9 -99.99 -9.99
2019/11/22 08:06 EST    7.77 -99.99 -999 -999 -999 -99.9 -99.9 -999.9 -9.9 -9.999 -99.9 -99.99 -9.99
2019/11/22 08:12 EST    7.71 -99.99 -999 -999 -999 -99.9 -99.9 -999.9 -9.9 -9.999 -99.9 -99.99 -9.99
2019/11/22 08:18 EST    7.64 -99.99 -999 -999 -999 -99.9 -99.9 -999.9 -9.9 -9.999 -99.9 -99.99 -9.99
2019/11/22 08:24 EST    7.57 -99.99 -999 -999 -999 -99.9 -99.9 -999.9 -9.9 -9.999 -99.9 -99.99 -9.99
2019/11/22 08:30 EST    7.48 -99.99 -999 -999 -999 -99.9 -99.9 -999.9 -9.9 -9.999 -99.9 -99.99 -9.99
2019/11/22 08:36 EST    7.38 -99.99 -999 -999 -999 -99.9 -99.9 -999.9 -9.9 -9.999 -99.9 -99.99 -9.99
2019/11/22 08:42 EST    7.28 -99.99 -999 -999 -999 -99.9 -99.9 -999.9 -9.9 -9.999 -99.9 -99.99 -9.99
2019/11/22 08:48 EST    7.16 -99.99 -999 -999 -999 -99.9 -99.9 -999.9 -9.9 -9.999 -99.9 -99.99 -9.99
2019/11/22 08:54 EST    7.03 -99.99 -999 -999 -999 -99.9 -99.9 -999.9 -9.9 -9.999 -99.9 -99.99 -9.99
2019/11/22 09:00 EST    6.89 -99.99 -999 -999 -999 -99.9 -99.9 -999.9 -9.9 -9.999 -99.9 -99.99 -9.99
2019/11/22 09:06 EST    6.74 -99.99 -999 -999 -999 -99.9 -99.9 -999.9 -9.9 -9.999 -99.9 -99.99 -9.99
2019/11/22 09:12 EST    6.58 -99.99 -999 -999 -999 -99.9 -99.9 -999.9 -9.9 -9.999 -99.9 -99.99 -9.99
2019/11/22 09:18 EST    6.40 -99.99 -999 -999 -999 -99.9 -99.9 -999.9 -9.9 -9.999 -99.9 -99.99 -9.99
2019/11/22 09:24 EST    6.22 -99.99 -999 -999 -999 -99.9 -99.9 -999.9 -9.9 -9.999 -99.9 -99.99 -9.99
2019/11/22 09:30 EST    6.03 -99.99 -999 -999 -999 -99.9 -99.9 -999.9 -9.9 -9.999 -99.9 -99.99 -9.99
2019/11/22 09:36 EST    5.84 -99.99 -999 -999 -999 -99.9 -99.9 -999.9 -9.9 -9.999 -99.9 -99.99 -9.99
2019/11/22 09:42 EST    5.63 -99.99 -999 -999 -999 -99.9 -99.9 -999.9 -9.9 -9.999 -99.9 -99.99 -9.99
2019/11/22 09:48 EST    5.42 -99.99 -999 -999 -999 -99.9 -99.9 -999.9 -9.9 -9.999 -99.9 -99.99 -9.99
2019/11/22 09:54 EST    5.20 -99.99 -999 -999 -999 -99.9 -99.9 -999.9 -9.9 -9.999 -99.9 -99.99 -9.99
2019/11/22 10:00 EST    4.98 -99.99 -999 -999 -999 -99.9 -99.9 -999.9 -9.9 -9.999 -99.9 -99.99 -9.99
2019/11/22 10:06 EST    4.75 -99.99 -999 -999 -999 -99.9 -99.9 -999.9 -9.9 -9.999 -99.9 -99.99 -9.99
2019/11/22 10:12 EST    4.52 -99.99 -999 -999 -999 -99.9 -99.9 -999.9 -9.9 -9.999 -99.9 -99.99 -9.99
2019/11/22 10:18 EST    4.29 -99.99 -999 -999 -999 -99.9 -99.9 -999.9 -9.9 -9.999 -99.9 -99.99 -9.99
2019/11/22 10:24 EST    4.06 -99.99 -999 -999 -999 -99.9 -99.9 -999.9 -9.9 -9.999 -99.9 -99.99 -9.99
2019/11/22 10:30 EST    3.83 -99.99 -999 -999 -999 -99.9 -99.9 -999.9 -9.9 -9.999 -99.9 -99.99 -9.99
2019/11/22 10:36 EST    3.60 -99.99 -999 -999 -999 -99.9 -99.9 -999.9 -9.9 -9.999 -99.9 -99.99 -9.99
2019/11/22 10:42 EST    3.37 -99.99 -999 -999 -999 -99.9 -99.9 -999.9 -9.9 -9.999 -99.9 -99.99 -9.99
2019/11/22 10:48 EST    3.15 -99.99 -999 -999 -999 -99.9 -99.9 -999.9 -9.9 -9.999 -99.9 -99.99 -9.99
2019/11/22 10:54 EST    2.93 -99.99 -999 -999 -999 -99.9 -99.9 -999.9 -9.9 -9.999 -99.9 -99.99 -9.99
2019/11/22 11:00 EST    2.72 -99.99 -999 -999 -999 -99.9 -99.9 -999.9 -9.9 -9.999 -99.9 -99.99 -9.99
2019/11/22 11:06 EST    2.52 -99.99 -999 -999 -999 -99.9 -99.9 -999.9 -9.9 -9.999 -99.9 -99.99 -9.99
2019/11/22 11:12 EST    2.32 -99.99 -999 -999 -999 -99.9 -99.9 -999.9 -9.9 -9.999 -99.9 -99.99 -9.99
2019/11/22 11:18 EST    2.13 -99.99 -999 -999 -999 -99.9 -99.9 -999.9 -9.9 -9.999 -99.9 -99.99 -9.99
2019/11/22 11:24 EST    1.95 -99.99 -999 -999 -999 -99.9 -99.9 -999.9 -9.9 -9.999 -99.9 -99.99 -9.99
2019/11/22 11:30 EST    1.78 -99.99 -999 -999 -999 -99.9 -99.9 -999.9 -9.9 -9.999 -99.9 -99.99 -9.99
2019/11/22 11:36 EST    1.62 -99.99 -999 -999 -999 -99.9 -99.9 -999.9 -9.9 -9.999 -99.9 -99.99 -9.99
2019/11/22 11:42 EST    1.47 -99.99 -999 -999 -999 -99.9 -99.9 -999.9 -9.9 -9.999 -99.9 -99.99 -9.99
2019/11/22 11:48 EST    1.33 -99.99 -999 -999 -999 -99.9 -99.9 -999.9 -9.9 -9.999 -99.9 -99.99 -9.99
2019/11/22 11:54 EST    1.20 -99.99 -999 -999 -999 -99.9 -99.9 -999.9 -9.9 -9.999 -99.9 -99.99 -9.99
2019/11/22 12:00 EST    1.07 -99.99 -999 -999 -999 -99.9 -99.9 -999.9 -9.9 -9.999 -99.9 -99.99 -9.99
2019/11/22 12:06 EST    0.96 -99.99 -999 -999 -999 -99.9 -99.9 -999.9 -9.9 -9.999 -99.9 -99.99 -9.99
2019/11/22 12:12 EST    0.85 -99.99 -999 -999 -999 -99.9 -99.9 -999.9 -9.9 -9.999 -99.9 -99.99 -9.99
2019/11/22 12:18 EST    0.76 -99.99 -999 -999 -999 -99.9 -99.9 -999.9 -9.9 -9.999 -99.9 -99.99 -9.99
2019/11/22 12:24 EST    0.67 -99.99 -999 -999 -999 -99.9 -99.9 -999.9 -9.9 -9.999 -99.9 -99.99 -9.99
2019/11/22 12:30 EST    0.58 -99.99 -999 -999 -999 -99.9 -99.9 -999.9 -9.9 -9.999 -99.9 -99.99 -9.99
2019/11/22 12:36 EST    0.51 -99.99 -999 -999 -999 -99.9 -99.9 -999.9 -9.9 -9.999 -99.9 -99.99 -9.99
2019/11/22 12:42 EST    0.44 -99.99 -999 -999 -999 -99.9 -99.9 -999.9 -9.9 -9.999 -99.9 -99.99 -9.99
2019/11/22 12:48 EST    0.37 -99.99 -999 -999 -999 -99.9 -99.9 -999.9 -9.9 -9.999 -99.9 -99.99 -9.99
2019/11/22 12:54 EST    0.31 -99.99 -999 -999 -999 -99.9 -99.9 -999.9 -9.9 -9.999 -99.9 -99.99 -9.99
2019/11/22 13:00 EST    0.25 -99.99 -999 -999 -999 -99.9 -99.9 -999.9 -9.9 -9.999 -99.9 -99.99 -9.99
2019/11/22 13:06 EST    0.20 -99.99 -999 -999 -999 -99.9 -99.9 -999.9 -9.9 -9.999 -99.9 -99.99 -9.99
2019/11/22 13:12 EST    0.15 -99.99 -999 -999 -999 -99.9 -99.9 -999.9 -9.9 -9.999 -99.9 -99.99 -9.99
2019/11/22 13:18 EST    0.11 -99.99 -999 -999 -999 -99.9 -99.9 -999.9 -9.9 -9.999 -99.9 -99.99 -9.99
2019/11/22 13:24 EST    0.06 -99.99 -999 -999 -999 -99.9 -99.9 -999.9 -9.9 -9.999 -99.9 -99.99 -9.99
2019/11/22 13:30 EST    0.02 -99.99 -999 -999 -999 -99.9 -99.9 -999.9 -9.9 -9.999 -99.9 -99.99 -9.99
2019/11/22 13:36 EST   -0.01 -99.99 -999 -999 -999 -99.9 -99.9 -999.9 -9.9 -9.999 -99.9 -99.99 -9.99